Time;durP1;ratioP1;P1;durP2;ratioP2;P2;SDS_P1;SDS_P2;PMS_P1;PMS_P2;Temp;Humidity;BMP_temperature;BMP_pressure;BME280_temperature;BME280_humidity;BME280_pressure;Samples;Min_cycle;Max_cycle;Signal;HPM_P1;HPM_P2
2022/05/08 00:00:38;;;;;;;10.38;4.85;;;;;;;12.12;100.00;102529.63;5310281;28;20436;-78
2022/05/08 00:03:10;;;;;;;8.30;5.10;;;;;;;12.09;100.00;102533.38;5313268;28;20023;-78
2022/05/08 00:05:41;;;;;;;7.70;5.03;;;;;;;12.06;100.00;102529.09;5295016;28;20036;-79
2022/05/08 00:08:12;;;;;;;10.75;5.85;;;;;;;12.02;100.00;102526.75;5309004;28;20024;-78
2022/05/08 00:10:44;;;;;;;10.40;5.20;;;;;;;12.09;100.00;102525.34;5308641;28;20036;-78
2022/05/08 00:13:15;;;;;;;8.95;4.97;;;;;;;12.04;100.00;102525.69;5278429;28;20358;-78
2022/05/08 00:15:46;;;;;;;8.10;5.82;;;;;;;12.03;100.00;102517.78;5294296;28;20052;-78
2022/05/08 00:18:18;;;;;;;9.13;5.53;;;;;;;12.00;100.00;102516.16;5308978;28;20032;-78
2022/05/08 00:20:49;;;;;;;11.32;5.47;;;;;;;12.05;100.00;102521.19;5309926;28;20513;-79
2022/05/08 00:23:20;;;;;;;9.05;5.85;;;;;;;12.03;100.00;102520.47;5308369;28;20115;-78
2022/05/08 00:25:51;;;;;;;12.77;6.50;;;;;;;11.99;100.00;102518.94;5307101;28;20094;-78
2022/05/08 00:28:23;;;;;;;10.52;5.80;;;;;;;11.98;100.00;102526.13;5310125;28;20070;-78
2022/05/08 00:30:54;;;;;;;8.13;5.82;;;;;;;11.94;100.00;102521.09;5313307;28;20020;-78
2022/05/08 00:33:25;;;;;;;10.38;5.93;;;;;;;11.93;100.00;102517.56;5310868;28;20458;-78
2022/05/08 00:35:57;;;;;;;11.65;6.28;;;;;;;11.98;100.00;102527.94;5318146;28;20403;-78
2022/05/08 00:38:28;;;;;;;9.25;6.03;;;;;;;11.96;100.00;102521.88;5314028;28;20412;-78
2022/05/08 00:40:59;;;;;;;11.07;5.80;;;;;;;11.91;100.00;102524.84;5311220;28;20166;-78
2022/05/08 00:43:36;;;;;;;9.82;6.38;;;;;;;11.92;100.00;102518.53;5306340;28;20046;-78
2022/05/08 00:46:09;;;;;;;10.95;6.50;;;;;;;11.90;100.00;102513.31;5294004;28;20070;-78
2022/05/08 00:48:41;;;;;;;13.68;7.18;;;;;;;11.85;100.00;102522.56;5289891;28;20070;-78
2022/05/08 00:51:15;;;;;;;11.23;7.03;;;;;;;11.83;100.00;102528.06;5288996;28;20476;-78
2022/05/08 00:53:50;;;;;;;11.13;6.93;;;;;;;11.80;100.00;102522.94;5314590;28;20036;-79
2022/05/08 00:56:21;;;;;;;10.20;6.43;;;;;;;11.77;100.00;102539.19;5290542;28;20020;-79
2022/05/08 00:58:54;;;;;;;11.38;6.65;;;;;;;11.80;100.00;102544.31;5314254;28;20042;-78
2022/05/08 01:01:25;;;;;;;12.27;7.00;;;;;;;11.77;100.00;102535.66;5316514;27;20064;-78
2022/05/08 01:03:56;;;;;;;11.15;7.25;;;;;;;11.73;100.00;102530.53;5314704;28;20024;-79
2022/05/08 01:06:31;;;;;;;10.40;7.00;;;;;;;11.69;100.00;102541.53;5314641;28;20035;-78
2022/05/08 01:09:02;;;;;;;11.43;7.25;;;;;;;11.71;100.00;102543.16;5315313;28;20021;-79
2022/05/08 01:11:33;;;;;;;15.60;7.80;;;;;;;11.68;100.00;102534.50;5316682;28;20035;-78
2022/05/08 01:14:05;;;;;;;11.65;8.63;;;;;;;11.64;100.00;102533.84;5317970;28;20403;-78
2022/05/08 01:16:36;;;;;;;11.77;7.65;;;;;;;11.61;100.00;102542.09;5297346;28;20387;-80
2022/05/08 01:19:08;;;;;;;15.13;7.88;;;;;;;11.59;100.00;102533.31;5310204;28;22981;-78
2022/05/08 01:21:41;;;;;;;10.43;7.72;;;;;;;11.61;100.00;102538.56;5316028;28;20024;-78
2022/05/08 01:24:20;;;;;;;11.15;8.80;;;;;;;11.58;100.00;102546.78;5317294;28;20024;-78
2022/05/08 01:26:52;;;;;;;11.55;8.60;;;;;;;11.51;100.00;102535.66;5320046;28;20034;-78
2022/05/08 01:29:23;;;;;;;12.27;8.43;;;;;;;11.54;100.00;102541.66;5316097;28;20096;-78
2022/05/08 01:31:54;;;;;;;9.38;8.40;;;;;;;11.47;100.00;102543.03;5319985;28;20095;-78
2022/05/08 01:34:26;;;;;;;11.90;8.65;;;;;;;11.47;100.00;102539.53;5314519;28;20043;-78
2022/05/08 01:36:57;;;;;;;13.90;9.30;;;;;;;11.38;100.00;102548.16;5308932;28;40365;-78
2022/05/08 01:39:28;;;;;;;12.00;8.60;;;;;;;11.40;100.00;102546.25;5312768;28;20036;-78
2022/05/08 01:42:02;;;;;;;14.20;8.80;;;;;;;11.37;100.00;102554.47;5296235;28;20055;-78
2022/05/08 01:44:34;;;;;;;14.70;9.30;;;;;;;11.40;100.00;102548.94;5312757;27;20089;-78
2022/05/08 01:49:55;;;;;;;12.88;9.40;;;;;;;11.31;100.00;102559.28;5310526;28;20415;-78
2022/05/08 01:52:26;;;;;;;11.93;9.65;;;;;;;11.24;100.00;102562.50;5313268;28;20090;-78
2022/05/08 01:54:57;;;;;;;15.43;9.73;;;;;;;11.15;100.00;102559.47;5313571;28;20032;-78
2022/05/08 01:57:29;;;;;;;12.48;9.07;;;;;;;11.16;100.00;102563.00;5294910;28;20028;-78
2022/05/08 02:00:00;;;;;;;14.57;9.48;;;;;;;11.14;100.00;102567.59;5305747;27;20115;-78
2022/05/08 02:02:32;;;;;;;14.52;10.40;;;;;;;11.07;100.00;102566.28;5315558;28;20036;-78
2022/05/08 02:05:04;;;;;;;13.85;9.90;;;;;;;10.98;100.00;102563.28;5311109;28;20035;-78
2022/05/08 02:07:35;;;;;;;16.40;9.38;;;;;;;11.06;100.00;102562.78;5312541;28;20473;-78
2022/05/08 02:10:07;;;;;;;13.80;10.05;;;;;;;10.99;100.00;102561.44;5290908;28;20021;-78
2022/05/08 02:12:39;;;;;;;14.63;10.32;;;;;;;10.97;100.00;102569.59;5313672;28;20098;-78
2022/05/08 02:15:12;;;;;;;13.20;10.48;;;;;;;10.94;100.00;102566.28;5311128;28;20031;-79
2022/05/08 02:17:43;;;;;;;15.52;10.43;;;;;;;10.90;100.00;102572.75;5316380;28;20082;-79
2022/05/08 02:20:14;;;;;;;13.93;10.23;;;;;;;10.88;100.00;102572.84;5308774;28;20028;-79
2022/05/08 02:22:46;;;;;;;15.20;10.57;;;;;;;10.87;100.00;102573.84;5311759;28;20058;-79
2022/05/08 02:25:17;;;;;;;15.05;11.02;;;;;;;10.81;100.00;102570.72;5306027;28;20028;-79
2022/05/08 02:27:49;;;;;;;18.42;11.80;;;;;;;10.70;100.00;102574.94;5316981;28;20034;-79
2022/05/08 02:30:22;;;;;;;16.20;10.90;;;;;;;10.74;100.00;102580.94;5319743;28;20054;-79
2022/05/08 02:32:54;;;;;;;19.30;11.93;;;;;;;10.71;100.00;102574.00;5316280;28;20102;-79
2022/05/08 02:35:25;;;;;;;17.08;11.73;;;;;;;10.69;100.00;102578.56;5312577;28;20062;-79
2022/05/08 02:37:57;;;;;;;16.38;11.05;;;;;;;10.64;100.00;102580.69;5317583;28;20587;-79
2022/05/08 02:40:28;;;;;;;18.38;11.25;;;;;;;10.63;100.00;102580.78;5299374;28;20084;-78
2022/05/08 02:42:59;;;;;;;19.60;11.98;;;;;;;10.56;100.00;102580.31;5318819;28;20040;-79
2022/05/08 02:45:31;;;;;;;17.38;11.50;;;;;;;10.51;100.00;102582.44;5317280;28;20024;-79
2022/05/08 02:48:02;;;;;;;18.33;11.23;;;;;;;10.53;100.00;102586.69;5297167;28;20031;-79
2022/05/08 02:50:33;;;;;;;16.83;11.00;;;;;;;10.48;100.00;102586.16;5313689;28;20040;-79
2022/05/08 02:53:05;;;;;;;16.98;11.60;;;;;;;10.41;100.00;102587.50;5319291;28;20040;-79
2022/05/08 02:58:32;;;;;;;18.50;11.70;;;;;;;10.43;100.00;102592.75;5314702;28;20411;-79
2022/05/08 03:01:07;;;;;;;20.60;11.88;;;;;;;10.39;100.00;102590.25;5317382;27;20043;-79
2022/05/08 03:03:38;;;;;;;14.35;10.38;;;;;;;10.47;100.00;102594.28;5318209;28;20032;-79
2022/05/08 03:06:13;;;;;;;20.55;11.80;;;;;;;10.25;100.00;102582.25;5317852;28;20156;-79
2022/05/08 03:08:44;;;;;;;17.77;11.02;;;;;;;10.33;100.00;102589.81;5318571;28;20551;-79
2022/05/08 03:11:29;;;;;;;17.77;11.52;;;;;;;10.29;100.00;102580.25;5317958;28;20159;-79
2022/05/08 03:14:01;;;;;;;20.85;11.48;;;;;;;10.26;100.00;102588.47;5316234;28;20028;-79
2022/05/08 03:16:33;;;;;;;18.83;11.07;;;;;;;10.30;100.00;102590.81;5299448;28;20032;-79
2022/05/08 03:19:04;;;;;;;17.77;11.95;;;;;;;10.22;100.00;102585.16;5317952;28;20036;-79
2022/05/08 03:21:37;;;;;;;15.68;10.10;;;;;;;10.31;100.00;102581.00;5311578;28;20058;-79
2022/05/08 03:24:09;;;;;;;15.55;10.93;;;;;;;10.27;100.00;102584.84;5308098;28;20028;-79
2022/05/08 03:26:40;;;;;;;14.45;10.77;;;;;;;10.25;100.00;102584.09;5311834;28;20537;-78
2022/05/08 03:29:11;;;;;;;16.67;11.15;;;;;;;10.17;100.00;102580.09;5313595;28;20114;-78
2022/05/08 03:31:43;;;;;;;16.85;10.43;;;;;;;10.25;100.00;102582.25;5313015;28;20051;-78
2022/05/08 03:34:15;;;;;;;15.20;9.82;;;;;;;10.25;100.00;102590.25;5290560;28;20098;-78
2022/05/08 03:36:46;;;;;;;17.20;10.73;;;;;;;10.29;100.00;102588.25;5312342;28;39727;-78
2022/05/08 03:39:17;;;;;;;14.88;10.15;;;;;;;10.17;100.00;102585.44;5313059;28;20408;-77
2022/05/08 03:41:48;;;;;;;15.05;9.85;;;;;;;10.15;100.00;102581.13;5287036;28;20032;-78
2022/05/08 03:44:20;;;;;;;19.25;9.23;;;;;;;10.19;100.00;102588.84;5306860;28;20024;-78
2022/05/08 03:46:51;;;;;;;21.67;9.93;;;;;;;10.13;100.00;102586.59;5305967;28;42040;-78
2022/05/08 03:49:22;;;;;;;20.42;9.20;;;;;;;10.07;100.00;102576.28;5309727;28;20029;-78
2022/05/08 03:51:54;;;;;;;19.50;8.38;;;;;;;10.01;100.00;102590.00;5315355;28;20691;-78
2022/05/08 03:54:25;;;;;;;19.58;7.72;;;;;;;9.95;100.00;102580.56;5311284;28;20039;-78
2022/05/08 03:56:56;;;;;;;17.98;7.00;;;;;;;9.93;100.00;102582.47;5313439;28;20028;-79
2022/05/08 03:59:27;;;;;;;14.23;6.82;;;;;;;9.85;100.00;102584.75;5291594;28;20612;-79
2022/05/08 04:01:59;;;;;;;21.20;7.95;;;;;;;9.83;100.00;102582.22;5313371;27;20503;-79
2022/05/08 04:04:30;;;;;;;18.02;7.63;;;;;;;9.78;100.00;102581.66;5316710;27;21116;-79
2022/05/08 04:07:02;;;;;;;18.08;6.57;;;;;;;9.78;100.00;102586.97;5314388;27;20024;-79
2022/05/08 04:09:33;;;;;;;25.50;7.90;;;;;;;9.75;100.00;102584.50;5317305;27;20029;-79
2022/05/08 04:12:05;;;;;;;16.33;6.78;;;;;;;9.77;100.00;102598.56;5314774;27;20032;-79
2022/05/08 04:14:36;;;;;;;15.15;7.22;;;;;;;9.73;100.00;102593.50;5312481;27;20684;-79
2022/05/08 04:17:07;;;;;;;17.48;7.05;;;;;;;9.76;100.00;102596.00;5314106;27;20079;-79
2022/05/08 04:19:38;;;;;;;22.60;6.63;;;;;;;9.71;100.00;102593.63;5313594;28;20111;-79
2022/05/08 04:25:00;;;;;;;20.95;7.03;;;;;;;9.69;100.00;102606.16;5317586;27;20439;-79
2022/05/08 04:27:31;;;;;;;16.63;6.53;;;;;;;9.65;100.00;102609.97;5315712;27;20108;-79
2022/05/08 04:30:04;;;;;;;20.85;7.18;;;;;;;9.65;100.00;102602.84;5315476;28;20027;-79
2022/05/08 04:32:35;;;;;;;22.08;6.35;;;;;;;9.62;100.00;102604.84;5316469;28;20026;-79
2022/05/08 04:35:07;;;;;;;21.52;6.43;;;;;;;9.58;100.00;102601.50;5319405;27;20025;-79
2022/05/08 04:37:38;;;;;;;21.33;6.25;;;;;;;9.56;100.00;102594.56;5318101;27;20087;-79
2022/05/08 04:40:09;;;;;;;20.75;6.65;;;;;;;9.51;100.00;102608.16;5301084;28;20066;-79
2022/05/08 04:42:41;;;;;;;20.73;5.88;;;;;;;9.44;100.00;102609.47;5318445;27;20052;-79
2022/05/08 04:45:12;;;;;;;23.30;6.35;;;;;;;9.45;100.00;102611.19;5320049;28;20058;-78
2022/05/08 04:47:43;;;;;;;20.98;6.13;;;;;;;9.45;100.00;102611.19;5317655;27;20031;-78
2022/05/08 04:50:14;;;;;;;24.52;8.15;;;;;;;9.45;100.00;102619.19;5317155;27;20074;-79
2022/05/08 04:52:46;;;;;;;26.83;7.72;;;;;;;9.48;100.00;102618.13;5318687;28;20357;-79
2022/05/08 04:55:17;;;;;;;29.70;6.70;;;;;;;9.45;100.00;102621.84;5296328;28;20013;-78
2022/05/08 04:57:48;;;;;;;21.42;5.53;;;;;;;9.48;100.00;102623.47;5316166;28;20024;-78
2022/05/08 05:00:20;;;;;;;24.10;6.20;;;;;;;9.49;100.00;102619.88;5303055;27;20135;-79
2022/05/08 05:02:51;;;;;;;25.08;6.63;;;;;;;9.48;100.00;102624.31;5338891;27;20047;-79
2022/05/08 05:05:22;;;;;;;24.13;7.20;;;;;;;9.53;100.00;102632.88;5340663;27;20135;-77
2022/05/08 05:07:54;;;;;;;23.65;5.90;;;;;;;9.53;100.00;102638.22;5323776;27;20149;-78
2022/05/08 05:10:25;;;;;;;25.40;6.43;;;;;;;9.53;100.00;102642.69;5340569;27;20024;-78
2022/05/08 05:12:56;;;;;;;21.40;6.13;;;;;;;9.56;100.00;102646.03;5340516;27;20035;-77
2022/05/08 05:15:29;;;;;;;22.80;6.28;;;;;;;9.64;100.00;102637.56;5342165;27;20043;-78
2022/05/08 05:18:01;;;;;;;21.70;6.28;;;;;;;9.64;100.00;102642.91;5340433;27;20028;-77
2022/05/08 05:20:33;;;;;;;21.05;6.88;;;;;;;9.60;100.00;102644.88;5341863;27;20035;-77
2022/05/08 05:23:05;;;;;;;23.08;6.20;;;;;;;9.60;100.00;102652.03;5339506;27;20360;-77
2022/05/08 05:25:36;;;;;;;20.25;6.00;;;;;;;9.66;100.00;102649.00;5316571;27;20027;-78
2022/05/08 05:28:07;;;;;;;20.95;5.88;;;;;;;9.68;100.00;102648.88;5337347;27;20386;-78
2022/05/08 05:30:39;;;;;;;22.45;5.63;;;;;;;9.72;100.00;102655.78;5337928;27;20376;-78
2022/05/08 05:33:15;;;;;;;21.58;5.22;;;;;;;9.80;100.00;102658.81;5337728;27;20028;-78
2022/05/08 05:35:46;;;;;;;24.67;6.15;;;;;;;9.83;100.00;102664.84;5339745;27;20097;-77
2022/05/08 05:38:18;;;;;;;19.27;5.70;;;;;;;9.85;100.00;102662.06;5337531;27;20051;-77
2022/05/08 05:40:49;;;;;;;29.45;6.30;;;;;;;9.96;100.00;102670.28;5322614;27;20448;-78
2022/05/08 05:43:20;;;;;;;20.75;5.45;;;;;;;10.03;100.00;102671.59;5315176;27;20582;-77
2022/05/08 05:47:49;;;;;;;22.85;5.38;;;;;;;10.08;100.00;102676.66;5317767;27;20028;-78
2022/05/08 05:48:43;;;;;;;21.95;5.70;;;;;;;10.10;100.00;102681.88;5338914;27;20020;-78
2022/05/08 05:51:14;;;;;;;22.98;5.97;;;;;;;10.15;100.00;102687.78;5343556;27;20028;-77
2022/05/08 05:53:45;;;;;;;20.15;5.57;;;;;;;10.28;100.00;102691.41;5340931;27;20019;-78
2022/05/08 05:56:17;;;;;;;23.98;5.10;;;;;;;10.37;100.00;102690.88;5323165;27;20076;-77
2022/05/08 05:58:48;;;;;;;23.05;6.30;;;;;;;10.52;100.00;102702.41;5338855;27;20121;-78
2022/05/08 06:01:19;;;;;;;17.80;5.47;;;;;;;10.57;100.00;102702.09;5335042;27;20055;-77
2022/05/08 06:03:51;;;;;;;21.05;5.50;;;;;;;10.55;100.00;102688.88;5319493;28;20111;-78
2022/05/08 06:06:22;;;;;;;18.98;4.95;;;;;;;10.59;100.00;102700.22;5319586;28;20027;-77
2022/05/08 06:08:53;;;;;;;19.67;5.25;;;;;;;10.65;100.00;102699.81;5317471;28;20024;-78
2022/05/08 06:11:25;;;;;;;23.48;5.30;;;;;;;10.73;100.00;102702.00;5320586;28;20047;-77
2022/05/08 06:13:56;;;;;;;22.60;4.40;;;;;;;10.87;100.00;102709.97;5315676;28;20457;-78
2022/05/08 06:16:35;;;;;;;18.92;5.50;;;;;;;11.04;100.00;102714.22;5318527;28;20028;-78
2022/05/08 06:19:13;;;;;;;21.05;5.20;;;;;;;11.04;100.00;102714.22;5298100;28;20378;-78
2022/05/08 06:21:44;;;;;;;20.02;4.43;;;;;;;11.11;100.00;102720.84;5299873;28;20028;-79
2022/05/08 06:24:15;;;;;;;18.08;4.72;;;;;;;11.18;100.00;102718.66;5297385;28;20044;-78
2022/05/08 06:26:54;;;;;;;18.75;5.22;;;;;;;11.25;100.00;102714.63;5320478;28;20476;-78
2022/05/08 06:29:26;;;;;;;19.40;6.10;;;;;;;11.26;100.00;102726.19;5316650;28;20024;-78
2022/05/08 06:31:57;;;;;;;21.27;4.93;;;;;;;11.23;100.00;102719.22;5283598;28;20051;-78
2022/05/08 06:34:29;;;;;;;20.50;4.47;;;;;;;11.33;100.00;102719.47;5316869;28;20024;-78
2022/05/08 06:37:00;;;;;;;20.20;5.18;;;;;;;11.42;100.00;102734.03;5319557;28;20024;-79
2022/05/08 06:39:34;;;;;;;20.27;5.30;;;;;;;11.46;100.00;102723.03;5316470;28;20067;-79
2022/05/08 06:42:06;;;;;;;26.88;5.07;;;;;;;11.50;100.00;102729.91;5319278;28;20097;-79
2022/05/08 06:44:43;;;;;;;18.95;5.70;;;;;;;11.62;100.00;102728.19;5314216;28;20040;-79
2022/05/08 06:47:15;;;;;;;22.88;5.40;;;;;;;11.70;100.00;102727.69;5301002;28;20571;-79
2022/05/08 06:49:46;;;;;;;19.52;4.40;;;;;;;11.78;100.00;102724.50;5312792;28;20118;-79
2022/05/08 06:52:17;;;;;;;23.67;4.53;;;;;;;11.76;100.00;102723.75;5286715;28;20028;-79
2022/05/08 06:54:49;;;;;;;25.63;6.03;;;;;;;12.00;100.00;102730.13;5313875;28;20104;-79
2022/05/08 06:57:20;;;;;;;25.50;5.47;;;;;;;12.07;100.00;102733.22;5311061;27;20791;-79
2022/05/08 07:02:42;;;;;;;16.73;4.53;;;;;;;12.14;100.00;102733.66;5315893;27;20052;-79
2022/05/08 07:05:17;;;;;;;16.73;4.13;;;;;;;12.29;100.00;102729.94;5315089;28;20047;-79
2022/05/08 07:07:51;;;;;;;21.10;4.57;;;;;;;12.27;100.00;102737.19;5317435;28;20039;-79
2022/05/08 07:10:23;;;;;;;20.02;5.25;;;;;;;12.42;100.00;102733.44;5315582;28;20459;-79
2022/05/08 07:12:56;;;;;;;15.50;4.47;;;;;;;12.26;100.00;102741.69;5317477;28;20026;-79
2022/05/08 07:15:27;;;;;;;19.00;4.43;;;;;;;12.37;100.00;102737.41;5317692;28;20727;-79
2022/05/08 07:17:59;;;;;;;22.55;5.22;;;;;;;12.47;100.00;102730.44;5313777;28;20072;-79
2022/05/08 07:20:30;;;;;;;20.65;4.18;;;;;;;12.51;100.00;102739.09;5318706;28;20108;-79
2022/05/08 07:23:01;;;;;;;22.10;4.97;;;;;;;12.70;100.00;102735.97;5314993;28;20032;-79
2022/05/08 07:25:33;;;;;;;15.73;4.28;;;;;;;12.73;100.00;102739.28;5311337;28;20492;-79
2022/05/08 07:28:04;;;;;;;20.60;5.45;;;;;;;12.76;100.00;102749.78;5310950;28;27289;-79
2022/05/08 07:30:36;;;;;;;20.95;4.82;;;;;;;13.46;100.00;102750.09;5291854;28;20028;-80
2022/05/08 07:33:07;;;;;;;12.20;3.97;;;;;;;14.46;100.00;102748.66;5309132;28;20024;-80
2022/05/08 07:38:29;;;;;;;15.25;4.20;;;;;;;16.80;100.00;102747.03;5315814;28;20036;-80
2022/05/08 07:41:01;;;;;;;19.08;4.25;;;;;;;17.58;100.00;102753.41;5319153;28;20039;-80
2022/05/08 07:43:32;;;;;;;13.65;3.83;;;;;;;18.42;100.00;102743.72;5315770;28;20434;-78
2022/05/08 07:46:05;;;;;;;13.13;3.95;;;;;;;19.26;100.00;102756.25;5311893;27;30154;-81
2022/05/08 07:48:36;;;;;;;13.77;4.10;;;;;;;19.64;100.00;102753.41;5308912;27;20030;-81
2022/05/08 07:51:07;;;;;;;16.35;4.10;;;;;;;20.10;100.00;102761.41;5312820;27;20024;-80
2022/05/08 07:53:38;;;;;;;15.95;4.70;;;;;;;20.49;84.50;102753.66;5310828;27;20043;-80
2022/05/08 07:56:10;;;;;;;13.57;4.15;;;;;;;20.84;76.75;102756.38;5316577;27;20035;-81
2022/05/08 07:58:41;;;;;;;14.48;4.68;;;;;;;20.93;74.20;102758.09;5307919;27;21671;-81
2022/05/08 08:01:12;;;;;;;13.77;4.70;;;;;;;21.48;62.75;102765.72;5296015;27;20048;-78
2022/05/08 08:03:44;;;;;;;12.65;3.97;;;;;;;21.63;72.57;102760.44;5333997;27;20493;-78
2022/05/08 08:06:15;;;;;;;12.65;3.70;;;;;;;21.84;72.43;102772.66;5329375;27;20027;-79
2022/05/08 08:08:49;;;;;;;17.02;4.85;;;;;;;21.97;56.59;102764.84;5333541;27;20023;-77
2022/05/08 08:11:20;;;;;;;16.30;4.25;;;;;;;23.06;52.50;102758.94;5332891;27;20031;-78
2022/05/08 08:13:54;;;;;;;15.27;4.20;;;;;;;23.01;53.34;102764.88;5337114;27;20058;-78
2022/05/08 08:16:25;;;;;;;19.33;4.57;;;;;;;23.69;48.36;102760.50;5331002;27;20048;-77
2022/05/08 08:18:57;;;;;;;12.85;4.60;;;;;;;24.00;48.77;102761.44;5337901;27;20027;-78
2022/05/08 08:21:29;;;;;;;18.30;4.40;;;;;;;24.41;44.69;102759.13;5339394;27;20040;-80
2022/05/08 08:24:00;;;;;;;12.52;3.90;;;;;;;24.12;48.77;102766.28;5334321;27;20490;-80
2022/05/08 08:26:31;;;;;;;16.30;4.50;;;;;;;24.63;45.53;102771.00;5336280;27;20020;-80
2022/05/08 08:29:03;;;;;;;16.80;4.45;;;;;;;24.98;47.97;102767.63;5337212;27;20110;-80
2022/05/08 08:31:34;;;;;;;9.15;3.90;;;;;;;25.70;49.15;102768.59;5339689;27;20523;-80
2022/05/08 08:34:05;;;;;;;12.57;4.03;;;;;;;26.81;40.38;102774.22;5331141;27;20035;-80
2022/05/08 08:36:37;;;;;;;13.73;4.20;;;;;;;26.68;41.40;102772.22;5337239;27;20027;-80
2022/05/08 08:39:08;;;;;;;12.75;4.40;;;;;;;26.79;36.66;102759.88;5342171;27;20034;-80
2022/05/08 08:41:43;;;;;;;13.20;4.00;;;;;;;26.47;37.15;102767.69;5336304;27;20074;-79
2022/05/08 08:49:58;;;;;;;9.30;3.50;;;;;;;28.20;39.17;102771.84;5333343;27;20040;-77
2022/05/08 08:52:30;;;;;;;11.57;3.70;;;;;;;28.17;37.82;102767.63;5318188;27;20383;-79
2022/05/08 08:55:02;;;;;;;9.75;3.60;;;;;;;28.44;32.73;102764.84;5327795;27;20020;-78
2022/05/08 08:57:33;;;;;;;11.02;3.85;;;;;;;28.25;35.20;102770.16;5335772;27;20027;-79
2022/05/08 09:00:07;;;;;;;16.77;4.30;;;;;;;28.70;30.60;102771.31;5338101;27;20081;-79
2022/05/08 09:02:39;;;;;;;13.73;3.78;;;;;;;27.64;29.59;102763.00;5332485;27;20060;-79
2022/05/08 09:05:11;;;;;;;11.52;3.85;;;;;;;28.10;32.64;102762.19;5312388;27;20060;-80
2022/05/08 09:07:45;;;;;;;10.57;4.05;;;;;;;28.89;36.62;102766.78;5312571;27;20036;-80
2022/05/08 09:10:21;;;;;;;11.43;3.72;;;;;;;29.53;33.06;102760.25;5312705;28;20031;-80
2022/05/08 09:12:52;;;;;;;9.80;3.55;;;;;;;29.57;27.23;102761.50;5285646;28;20024;-80
2022/05/08 09:15:25;;;;;;;10.60;3.60;;;;;;;30.85;27.83;102764.59;5310899;28;20032;-80
2022/05/08 09:17:59;;;;;;;10.95;3.30;;;;;;;30.80;31.23;102766.38;5322294;28;20024;-80
2022/05/08 09:20:41;;;;;;;14.32;3.88;;;;;;;31.10;31.26;102761.75;5287843;28;20033;-80
2022/05/08 09:23:14;;;;;;;10.85;3.88;;;;;;;30.22;30.59;102754.75;5283801;28;20040;-80
2022/05/08 09:25:54;;;;;;;12.18;4.22;;;;;;;31.16;29.45;102759.97;5298845;28;20024;-81
2022/05/08 09:28:41;;;;;;;14.70;3.63;;;;;;;32.26;27.45;102754.94;5311617;28;20365;-80
2022/05/08 09:31:16;;;;;;;12.88;3.30;;;;;;;33.04;30.23;102751.81;5312669;28;20473;-80
2022/05/08 09:33:48;;;;;;;;;;;;;;;35.49;27.75;102752.63;5295900;28;20071;-81
2022/05/08 09:36:24;;;;;;;11.40;3.50;;;;;;;33.06;25.36;102755.16;5306706;28;19923;-81
2022/05/08 09:38:58;;;;;;;12.13;3.67;;;;;;;32.42;24.17;102750.59;5288112;28;20021;-81
2022/05/08 09:41:30;;;;;;;14.30;4.00;;;;;;;33.30;22.78;102753.13;5318460;28;20051;-81
2022/05/08 09:44:08;;;;;;;10.13;3.30;;;;;;;33.94;30.01;102738.09;5315852;28;20095;-81
2022/05/08 09:46:44;;;;;;;13.50;3.30;;;;;;;33.79;24.59;102747.84;5314545;28;40378;-81
2022/05/08 09:49:23;;;;;;;13.88;3.63;;;;;;;33.98;27.88;102751.19;5317641;28;20530;-81
2022/05/08 09:51:56;;;;;;;12.35;3.40;;;;;;;32.80;23.17;102751.91;5298866;28;20024;-81
2022/05/08 09:54:28;;;;;;;10.18;3.50;;;;;;;32.94;25.07;102752.44;5322756;28;20035;-82
2022/05/08 09:57:01;;;;;;;11.93;3.70;;;;;;;32.92;25.83;102758.22;5317612;28;20024;-81
2022/05/08 09:59:34;;;;;;;14.18;3.35;;;;;;;33.28;22.93;102752.53;5325611;28;20016;-82
2022/05/08 10:02:11;;;;;;;11.02;3.28;;;;;;;33.10;25.20;102748.03;5316537;28;20036;-81
2022/05/08 10:04:43;;;;;;;9.60;3.20;;;;;;;33.48;26.21;102743.72;5333214;27;20044;-82
2022/05/08 10:07:15;;;;;;;7.90;3.25;;;;;;;33.64;26.93;102729.03;5330520;27;20024;-81
2022/05/08 10:15:32;;;;;;;10.23;2.92;;;;;;;34.21;23.09;102739.06;5342419;27;20044;-81
2022/05/08 10:18:28;;;;;;;9.70;3.20;;;;;;;34.56;26.88;102740.59;5332920;27;20708;-81
2022/05/08 10:21:12;;;;;;;8.40;3.55;;;;;;;33.93;23.15;102725.38;5342110;27;20019;-81
2022/05/08 10:23:48;;;;;;;10.40;3.03;;;;;;;34.21;21.32;102727.97;5337750;27;20032;-82
2022/05/08 10:26:21;;;;;;;9.43;3.75;;;;;;;33.74;26.50;102725.63;5343354;27;20021;-81
2022/05/08 10:29:02;;;;;;;8.30;3.10;;;;;;;34.84;26.34;102728.44;5330842;27;20114;-81
2022/05/08 10:31:55;;;;;;;7.70;3.22;;;;;;;36.36;21.11;102719.81;5337203;27;20028;-82
2022/05/08 10:34:31;;;;;;;9.85;3.13;;;;;;;35.11;21.11;102726.75;5337119;27;20058;-82
2022/05/08 10:37:12;;;;;;;8.32;3.00;;;;;;;36.27;24.66;102715.91;5330796;27;20028;-81
2022/05/08 10:39:47;;;;;;;9.77;2.92;;;;;;;34.54;20.53;102719.75;5342257;27;20117;-81
2022/05/08 10:42:27;;;;;;;7.32;3.03;;;;;;;35.67;23.52;102707.78;5334464;27;20036;-81
2022/05/08 10:45:02;;;;;;;5.60;2.10;;;;;;;35.15;20.57;102714.03;5334219;27;27437;-81
2022/05/08 10:47:33;;;;;;;10.23;3.13;;;;;;;36.34;20.73;102705.38;5334717;27;20020;-82
2022/05/08 10:50:09;;;;;;;9.93;3.55;;;;;;;35.86;20.58;102697.09;5332947;27;20043;-81
2022/05/08 10:52:43;;;;;;;7.53;2.45;;;;;;;35.38;22.11;102705.38;5340661;27;20035;-81
2022/05/08 10:55:16;;;;;;;9.48;2.88;;;;;;;35.71;25.38;102710.88;5338476;27;20031;-81
2022/05/08 10:57:49;;;;;;;7.07;3.03;;;;;;;35.62;21.96;102702.19;5329144;27;20020;-81
2022/05/08 11:00:22;;;;;;;8.20;2.50;;;;;;;36.26;21.58;102703.97;5331190;27;20623;-81
2022/05/08 11:03:00;;;;;;;9.60;2.75;;;;;;;37.11;20.92;102701.91;5337245;27;20504;-81
2022/05/08 11:05:38;;;;;;;8.45;3.22;;;;;;;37.35;20.95;102705.81;5297433;27;20023;-81
2022/05/08 11:08:11;;;;;;;7.53;2.70;;;;;;;35.66;19.54;102705.28;5316494;27;20047;-81
2022/05/08 11:10:43;;;;;;;7.07;2.83;;;;;;;35.91;25.87;102699.91;5311735;27;20067;-81
2022/05/08 11:13:17;;;;;;;6.60;2.70;;;;;;;37.02;19.15;102696.06;5298627;28;20103;-82
2022/05/08 11:15:49;;;;;;;6.53;2.87;;;;;;;37.42;19.61;102700.81;5309831;27;20527;-81
2022/05/08 11:18:26;;;;;;;7.93;2.75;;;;;;;37.91;19.99;102695.72;5314806;27;20027;-82
2022/05/08 11:21:03;;;;;;;8.65;3.20;;;;;;;37.42;19.73;102692.47;5294398;28;20376;-82
2022/05/08 11:23:42;;;;;;;6.97;2.60;;;;;;;37.45;20.51;102705.00;5316571;28;20542;-81
2022/05/08 11:26:14;;;;;;;9.35;2.90;;;;;;;36.89;20.04;102698.31;5317401;28;20024;-81
2022/05/08 11:28:51;;;;;;;11.65;3.80;;;;;;;37.05;20.94;102701.09;5312607;27;20016;-82
2022/05/08 11:31:25;;;;;;;6.68;2.33;;;;;;;38.55;16.39;102686.50;5309798;27;20444;-81
2022/05/08 11:36:47;;;;;;;6.60;2.72;;;;;;;37.64;20.30;102677.41;5310267;27;20032;-82
2022/05/08 11:39:19;;;;;;;8.13;2.37;;;;;;;38.33;20.73;102683.28;5319299;28;20537;-81
2022/05/08 11:41:51;;;;;;;6.93;2.75;;;;;;;37.76;22.11;102685.44;5313674;27;20277;-81
2022/05/08 11:44:27;;;;;;;8.23;2.80;;;;;;;37.46;18.40;102679.63;5294060;28;20025;-81
2022/05/08 11:46:59;;;;;;;8.60;2.90;;;;;;;37.43;20.78;102680.22;5304024;28;20039;-81
2022/05/08 11:49:31;;;;;;;6.30;2.47;;;;;;;38.16;18.75;102669.72;5317237;27;20024;-81
2022/05/08 11:52:04;;;;;;;7.50;2.72;;;;;;;37.36;21.46;102673.25;5325269;28;20020;-81
2022/05/08 11:54:38;;;;;;;10.13;2.97;;;;;;;37.15;18.52;102666.88;5294043;28;20407;-82
2022/05/08 11:57:13;;;;;;;12.98;2.60;;;;;;;37.97;19.39;102659.19;5303779;28;20070;-81
2022/05/08 11:59:48;;;;;;;;;;;;;;;41.29;17.36;102673.69;5285105;28;20116;-81
2022/05/08 12:02:42;;;;;;;9.07;2.80;;;;;;;39.28;18.62;102662.47;5303677;28;19916;-81
2022/05/08 12:05:23;;;;;;;11.60;3.15;;;;;;;37.41;18.00;102656.56;5319531;28;20046;-81
2022/05/08 12:07:54;;;;;;;9.52;3.17;;;;;;;36.85;19.33;102655.50;5303884;28;20032;-81